Novomar — 5BCT2 — position and weather

sailwx.info

Track history (hours):
 
Tides and Currents Weather Stations Pressure Air Temp Water Temp Dewpoint Dewpoint Depression Visibility Wind Speed Wind Dir Waves Ship Positions

Novomar

Last reported at 2016-Feb-14 18:34 UTC. Time now 2016-Feb-14 18:55 UTC.
Position N 59°25' E 010°34'.

Length 89 m; draft 5.1 m.

Type: Cargo ship. MMSI: 210974000.

Date/timePositionNaut miles runAvg speedWind from/ knotsBaromVisibWave heightAir tempDewpointWater temp
2016-Feb-14 18:34N 59°25' E 010°34'9 9.4
2016-Feb-14 17:34N 59°16' E 010°38'9 9.4
2016-Feb-14 16:34N 59°06' E 010°36'9 9.3
2016-Feb-14 15:33N 58°57' E 010°39'10 9.6
2016-Feb-14 14:33N 58°48' E 010°44'10 9.9
2016-Feb-14 13:34N 58°38' E 010°49'1010.2
2016-Feb-14 12:34N 58°28' E 010°55'1010.3
2016-Feb-14 11:34N 58°18' E 010°59'1110.5
2016-Feb-14 10:34N 58°08' E 011°04'1110.6
2016-Feb-14 09:34N 57°58' E 011°10'1010.2
2016-Feb-14 08:33N 57°48' E 011°15'1010.1
2016-Feb-14 07:33N 57°39' E 011°21'1110.5
2016-Feb-14 06:34N 57°28' E 011°26'1010.3
2016-Feb-14 05:33N 57°19' E 011°32'1110.5
2016-Feb-14 04:32N 57°09' E 011°39'1110.6
2016-Feb-14 03:33N 56°59' E 011°46'1110.6
2016-Feb-14 02:33N 56°49' E 011°52'1010.3
2016-Feb-14 01:33N 56°39' E 011°57'39 9.7
2016-Feb-13 21:32N 56°06' E 012°35'1110.9
2016-Feb-13 20:33N 55°56' E 012°44'1110.7
2016-Feb-13 19:33N 55°46' E 012°42'1111.1
2016-Feb-13 18:33N 55°34' E 012°42'1010.2
2016-Feb-13 17:34N 55°24' E 012°42'9 8.7
2016-Feb-13 16:33N 55°17' E 012°49'1210.6
2016-Feb-13 15:27N 55°15' E 013°09'2110.9
2016-Feb-13 13:33N 55°15' E 013°46'1010.2
2016-Feb-13 12:33N 55°14' E 014°04'9 9.4
2016-Feb-13 11:33N 55°16' E 014°20'10 9.9
2016-Feb-13 10:33N 55°24' E 014°31'10 9.8
2016-Feb-13 09:33N 55°30' E 014°45'10 9.8
2016-Feb-13 08:33N 55°35' E 014°60'10 9.5
2016-Feb-13 07:33N 55°39' E 015°15'352 9.2
2016-Feb-11 17:22N 59°38' E 023°20'8 9.6
2016-Feb-11 16:33N 59°40' E 023°34'89 9.7
2016-Feb-11 07:23N 60°01' E 026°27'8 9.7
2016-Feb-11 06:33N 60°01' E 026°43'48 9.2
2016-Feb-11 01:21N 60°07' E 028°18'45 8.7
2016-Feb-10 20:09N 59°58' E 029°47'5 8.1
2016-Feb-10 19:33N 59°56' E 029°56'8 8.2
2016-Feb-10 18:33N 59°53' E 030°11'1 0.8
2016-Feb-10 17:33N 59°54' E 030°13'0 0.0
2016-Feb-10 16:31N 59°54' E 030°13'0 0.0
2016-Feb-10 15:31N 59°54' E 030°13'0 0.0
2016-Feb-10 14:31N 59°54' E 030°13'0 0.0
2016-Feb-10 13:31N 59°54' E 030°13'0 0.0
2016-Feb-10 12:31N 59°54' E 030°13'0 0.0
2016-Feb-10 11:31N 59°54' E 030°13'0 0.0
2016-Feb-10 10:31N 59°54' E 030°13'0 0.0
2016-Feb-10 09:31N 59°54' E 030°13'0 0.0
2016-Feb-10 08:31N 59°54' E 030°13'0 0.0
2016-Feb-10 07:31N 59°54' E 030°13'0 0.0
2016-Feb-10 06:31N 59°54' E 030°13'0 0.0
2016-Feb-10 05:31N 59°54' E 030°13'0 0.0
2016-Feb-10 04:31N 59°54' E 030°13'0 0.0
2016-Feb-10 03:31N 59°54' E 030°13'0 0.0
2016-Feb-10 02:31N 59°54' E 030°13'0 0.0
2016-Feb-10 01:31N 59°54' E 030°13'0 0.0
2016-Feb-10 00:31N 59°54' E 030°13'0 0.0
2016-Feb-09 23:31N 59°54' E 030°13'0 0.0
2016-Feb-09 22:28N 59°54' E 030°13'0 0.0
2016-Feb-09 21:31N 59°54' E 030°13'0 0.0
2016-Feb-09 20:31N 59°54' E 030°13'0 0.0
2016-Feb-09 19:31N 59°54' E 030°13'0 0.0
2016-Feb-09 18:31N 59°54' E 030°13'0 0.0
2016-Feb-09 17:31N 59°54' E 030°13'0 0.0
2016-Feb-09 16:31N 59°54' E 030°13'0 0.0
2016-Feb-09 15:31N 59°54' E 030°13'0 0.0
2016-Feb-09 14:31N 59°54' E 030°13'0 0.0
2016-Feb-09 13:32N 59°54' E 030°13'0 0.0
2016-Feb-09 12:32N 59°54' E 030°13'0 0.0
2016-Feb-09 11:32N 59°54' E 030°13'0 0.0
2016-Feb-09 10:32N 59°54' E 030°13'0 0.0
2016-Feb-09 09:32N 59°54' E 030°13'0 0.0
2016-Feb-09 08:32N 59°54' E 030°13'0 0.0
2016-Feb-09 07:32N 59°54' E 030°13'0 0.0
2016-Feb-09 06:32N 59°54' E 030°13'0 0.0
2016-Feb-09 05:32N 59°54' E 030°13'0 0.0
2016-Feb-09 04:32N 59°54' E 030°13'0 0.0
2016-Feb-09 03:32N 59°54' E 030°13'0 0.0
2016-Feb-09 02:32N 59°54' E 030°13'0 0.0
2016-Feb-09 01:32N 59°54' E 030°13'0 0.0
2016-Feb-09 00:32N 59°54' E 030°13'0 0.0
2016-Feb-08 23:32N 59°54' E 030°13'0 0.0
2016-Feb-08 22:32N 59°54' E 030°13'0 0.0
2016-Feb-08 21:32N 59°54' E 030°13'0 0.0
2016-Feb-08 20:32N 59°54' E 030°13'0 0.0
2016-Feb-08 19:32N 59°54' E 030°13'0 0.0
2016-Feb-08 18:32N 59°54' E 030°13'0 0.0
2016-Feb-08 17:32N 59°54' E 030°13'0 0.0
2016-Feb-08 16:32N 59°54' E 030°13'0 0.0
2016-Feb-08 15:32N 59°54' E 030°13'0 0.0
2016-Feb-08 14:32N 59°54' E 030°13'0 0.0
2016-Feb-08 13:32N 59°54' E 030°13'0 0.0
2016-Feb-08 12:32N 59°54' E 030°13'0 0.0
2016-Feb-08 11:32N 59°54' E 030°13'0 0.0
2016-Feb-08 10:32N 59°54' E 030°13'0 0.0
2016-Feb-08 09:32N 59°54' E 030°13'0 0.0
2016-Feb-08 08:32N 59°54' E 030°13'0 0.0
2016-Feb-08 07:32N 59°54' E 030°13'0 0.0
2016-Feb-08 06:32N 59°54' E 030°13'0 0.0
2016-Feb-08 05:32N 59°54' E 030°13'0 0.0
2016-Feb-08 04:32N 59°54' E 030°13'0 0.0
2016-Feb-08 03:32N 59°54' E 030°13'0 0.0
2016-Feb-08 02:32N 59°54' E 030°13'0 0.0
2016-Feb-08 01:32N 59°54' E 030°13'0 0.0
2016-Feb-08 00:32N 59°54' E 030°13'0 0.0
2016-Feb-07 23:32N 59°54' E 030°13'0 0.0
2016-Feb-07 22:32N 59°54' E 030°13'0 0.0
2016-Feb-07 21:32N 59°54' E 030°13'0 0.0
2016-Feb-07 20:32N 59°54' E 030°13'0 0.0
2016-Feb-07 19:32N 59°54' E 030°13'0 0.0
2016-Feb-07 18:32N 59°54' E 030°13'0 0.0
2016-Feb-07 17:32N 59°54' E 030°13'0 0.0
2016-Feb-07 16:32N 59°54' E 030°13'0 0.0
2016-Feb-07 15:32N 59°54' E 030°13'0 0.0
2016-Feb-07 14:32N 59°54' E 030°13'0 0.0
2016-Feb-07 13:32N 59°54' E 030°13'0 0.0
2016-Feb-07 12:32N 59°54' E 030°13'0 0.0
2016-Feb-07 11:32N 59°54' E 030°13'0 0.0
2016-Feb-07 10:32N 59°54' E 030°13'0 0.0
2016-Feb-07 09:32N 59°54' E 030°13'0 0.0
2016-Feb-07 08:32N 59°54' E 030°13'0 0.0
2016-Feb-07 07:32N 59°54' E 030°13'0 0.0
2016-Feb-07 06:32N 59°54' E 030°13'0 0.0
2016-Feb-07 05:32N 59°54' E 030°13'0 0.0
2016-Feb-07 04:32N 59°54' E 030°13'0 0.0
2016-Feb-07 03:32N 59°54' E 030°13'0 0.0
2016-Feb-07 02:32N 59°54' E 030°13'0 0.0
2016-Feb-07 01:32N 59°54' E 030°13'0 0.0
2016-Feb-07 00:32N 59°54' E 030°13'0 0.0
2016-Feb-06 23:32N 59°54' E 030°13'0 0.0
2016-Feb-06 22:32N 59°54' E 030°13'0 0.0
2016-Feb-06 21:32N 59°54' E 030°13'0 0.0
2016-Feb-06 20:32N 59°54' E 030°13'0 0.0
2016-Feb-06 19:32N 59°54' E 030°13'0 0.0
2016-Feb-06 18:32N 59°54' E 030°13'0 0.0
2016-Feb-06 17:32N 59°54' E 030°13'0 0.0
2016-Feb-06 16:32N 59°54' E 030°13'0 0.0
2016-Feb-06 15:32N 59°54' E 030°13'0 0.0
2016-Feb-06 14:32N 59°54' E 030°13'0 0.0
2016-Feb-06 13:32N 59°54' E 030°13'0 0.0
2016-Feb-06 12:32N 59°54' E 030°13'0 0.0
2016-Feb-06 11:32N 59°54' E 030°13'0 0.0
2016-Feb-06 10:32N 59°54' E 030°13'0 0.0
2016-Feb-06 09:32N 59°54' E 030°13'0 0.0
2016-Feb-06 08:32N 59°54' E 030°13'0 0.0
2016-Feb-06 07:33N 59°54' E 030°13'1 0.5
2016-Feb-06 06:33N 59°53' E 030°12'1 1.1
2016-Feb-06 05:33N 59°53' E 030°10'9 9.4
2016-Feb-06 04:33N 59°57' E 029°53'30 3.3
2016-Feb-05 19:33N 60°02' E 028°54'1010.3
2016-Feb-05 18:33N 60°02' E 028°34'1010.3
2016-Feb-05 17:33N 60°07' E 028°16'1110.5
2016-Feb-05 16:33N 60°10' E 027°55'37 8.9
2016-Feb-05 12:22N 60°05' E 026°41'1210.3
2016-Feb-05 11:15N 60°12' E 026°23'7 9.6
2016-Feb-05 10:33N 60°18' E 026°29'1010.2
2016-Feb-05 09:33N 60°23' E 026°47'5 4.6
2016-Feb-05 08:32N 60°26' E 026°55'0 0.0
2016-Feb-05 07:32N 60°26' E 026°55'0 0.0
2016-Feb-05 06:32N 60°26' E 026°55'0 0.0
2016-Feb-05 05:32N 60°26' E 026°55'0 0.0
2016-Feb-05 04:32N 60°26' E 026°55'0 0.0
2016-Feb-05 03:32N 60°26' E 026°55'0 0.0
2016-Feb-05 02:32N 60°26' E 026°55'0 0.0
2016-Feb-05 01:32N 60°26' E 026°55'0 0.0
2016-Feb-05 00:32N 60°26' E 026°55'0 0.0
2016-Feb-04 23:32N 60°26' E 026°55'0 0.0
2016-Feb-04 22:32N 60°26' E 026°55'0 0.0
2016-Feb-04 21:29N 60°26' E 026°55'0 0.0
2016-Feb-04 20:32N 60°26' E 026°55'0 0.0
2016-Feb-04 19:32N 60°26' E 026°55'  
Track history (hours):
 
Tides and Currents Weather Stations Pressure Air Temp Water Temp Dewpoint Dewpoint Depression Visibility Wind Speed Wind Dir Waves Ship Positions

Novomar

Last reported at 2016-Feb-14 18:34 UTC. Time now 2016-Feb-14 18:55 UTC.
Position N 59°25' E 010°34'.

Length 89 m; draft 5.1 m.

Type: Cargo ship. MMSI: 210974000.

Date/timePositionNaut miles runAvg speedWind from/ knotsBaromVisibWave heightAir tempDewpointWater temp
2016-Feb-14 18:34N 59°25' E 010°34'9 9.4
2016-Feb-14 17:34N 59°16' E 010°38'9 9.4
2016-Feb-14 16:34N 59°06' E 010°36'9 9.3
2016-Feb-14 15:33N 58°57' E 010°39'10 9.6
2016-Feb-14 14:33N 58°48' E 010°44'10 9.9
2016-Feb-14 13:34N 58°38' E 010°49'1010.2
2016-Feb-14 12:34N 58°28' E 010°55'1010.3
2016-Feb-14 11:34N 58°18' E 010°59'1110.5
2016-Feb-14 10:34N 58°08' E 011°04'1110.6
2016-Feb-14 09:34N 57°58' E 011°10'1010.2
2016-Feb-14 08:33N 57°48' E 011°15'1010.1
2016-Feb-14 07:33N 57°39' E 011°21'1110.5
2016-Feb-14 06:34N 57°28' E 011°26'1010.3
2016-Feb-14 05:33N 57°19' E 011°32'1110.5
2016-Feb-14 04:32N 57°09' E 011°39'1110.6
2016-Feb-14 03:33N 56°59' E 011°46'1110.6
2016-Feb-14 02:33N 56°49' E 011°52'1010.3
2016-Feb-14 01:33N 56°39' E 011°57'39 9.7
2016-Feb-13 21:32N 56°06' E 012°35'1110.9
2016-Feb-13 20:33N 55°56' E 012°44'1110.7
2016-Feb-13 19:33N 55°46' E 012°42'1111.1
2016-Feb-13 18:33N 55°34' E 012°42'1010.2
2016-Feb-13 17:34N 55°24' E 012°42'9 8.7
2016-Feb-13 16:33N 55°17' E 012°49'1210.6
2016-Feb-13 15:27N 55°15' E 013°09'2110.9
2016-Feb-13 13:33N 55°15' E 013°46'1010.2
2016-Feb-13 12:33N 55°14' E 014°04'9 9.4
2016-Feb-13 11:33N 55°16' E 014°20'10 9.9
2016-Feb-13 10:33N 55°24' E 014°31'10 9.8
2016-Feb-13 09:33N 55°30' E 014°45'10 9.8
2016-Feb-13 08:33N 55°35' E 014°60'10 9.5
2016-Feb-13 07:33N 55°39' E 015°15'352 9.2
2016-Feb-11 17:22N 59°38' E 023°20'8 9.6
2016-Feb-11 16:33N 59°40' E 023°34'89 9.7
2016-Feb-11 07:23N 60°01' E 026°27'8 9.7
2016-Feb-11 06:33N 60°01' E 026°43'48 9.2
2016-Feb-11 01:21N 60°07' E 028°18'45 8.7
2016-Feb-10 20:09N 59°58' E 029°47'5 8.1
2016-Feb-10 19:33N 59°56' E 029°56'8 8.2
2016-Feb-10 18:33N 59°53' E 030°11'1 0.8
2016-Feb-10 17:33N 59°54' E 030°13'0 0.0
2016-Feb-10 16:31N 59°54' E 030°13'0 0.0
2016-Feb-10 15:31N 59°54' E 030°13'0 0.0
2016-Feb-10 14:31N 59°54' E 030°13'0 0.0
2016-Feb-10 13:31N 59°54' E 030°13'0 0.0
2016-Feb-10 12:31N 59°54' E 030°13'0 0.0
2016-Feb-10 11:31N 59°54' E 030°13'0 0.0
2016-Feb-10 10:31N 59°54' E 030°13'0 0.0
2016-Feb-10 09:31N 59°54' E 030°13'0 0.0
2016-Feb-10 08:31N 59°54' E 030°13'0 0.0
2016-Feb-10 07:31N 59°54' E 030°13'0 0.0
2016-Feb-10 06:31N 59°54' E 030°13'0 0.0
2016-Feb-10 05:31N 59°54' E 030°13'0 0.0
2016-Feb-10 04:31N 59°54' E 030°13'0 0.0
2016-Feb-10 03:31N 59°54' E 030°13'0 0.0
2016-Feb-10 02:31N 59°54' E 030°13'0 0.0
2016-Feb-10 01:31N 59°54' E 030°13'0 0.0
2016-Feb-10 00:31N 59°54' E 030°13'0 0.0
2016-Feb-09 23:31N 59°54' E 030°13'0 0.0
2016-Feb-09 22:28N 59°54' E 030°13'0 0.0
2016-Feb-09 21:31N 59°54' E 030°13'0 0.0
2016-Feb-09 20:31N 59°54' E 030°13'0 0.0
2016-Feb-09 19:31N 59°54' E 030°13'0 0.0
2016-Feb-09 18:31N 59°54' E 030°13'0 0.0
2016-Feb-09 17:31N 59°54' E 030°13'0 0.0
2016-Feb-09 16:31N 59°54' E 030°13'0 0.0
2016-Feb-09 15:31N 59°54' E 030°13'0 0.0
2016-Feb-09 14:31N 59°54' E 030°13'0 0.0
2016-Feb-09 13:32N 59°54' E 030°13'0 0.0
2016-Feb-09 12:32N 59°54' E 030°13'0 0.0
2016-Feb-09 11:32N 59°54' E 030°13'0 0.0
2016-Feb-09 10:32N 59°54' E 030°13'0 0.0
2016-Feb-09 09:32N 59°54' E 030°13'0 0.0
2016-Feb-09 08:32N 59°54' E 030°13'0 0.0
2016-Feb-09 07:32N 59°54' E 030°13'0 0.0
2016-Feb-09 06:32N 59°54' E 030°13'0 0.0
2016-Feb-09 05:32N 59°54' E 030°13'0 0.0
2016-Feb-09 04:32N 59°54' E 030°13'0 0.0
2016-Feb-09 03:32N 59°54' E 030°13'0 0.0
2016-Feb-09 02:32N 59°54' E 030°13'0 0.0
2016-Feb-09 01:32N 59°54' E 030°13'0 0.0
2016-Feb-09 00:32N 59°54' E 030°13'0 0.0
2016-Feb-08 23:32N 59°54' E 030°13'0 0.0
2016-Feb-08 22:32N 59°54' E 030°13'0 0.0
2016-Feb-08 21:32N 59°54' E 030°13'0 0.0
2016-Feb-08 20:32N 59°54' E 030°13'0 0.0
2016-Feb-08 19:32N 59°54' E 030°13'0 0.0
2016-Feb-08 18:32N 59°54' E 030°13'0 0.0
2016-Feb-08 17:32N 59°54' E 030°13'0 0.0
2016-Feb-08 16:32N 59°54' E 030°13'0 0.0
2016-Feb-08 15:32N 59°54' E 030°13'0 0.0
2016-Feb-08 14:32N 59°54' E 030°13'0 0.0
2016-Feb-08 13:32N 59°54' E 030°13'0 0.0
2016-Feb-08 12:32N 59°54' E 030°13'0 0.0
2016-Feb-08 11:32N 59°54' E 030°13'0 0.0
2016-Feb-08 10:32N 59°54' E 030°13'0 0.0
2016-Feb-08 09:32N 59°54' E 030°13'0 0.0
2016-Feb-08 08:32N 59°54' E 030°13'0 0.0
2016-Feb-08 07:32N 59°54' E 030°13'0 0.0
2016-Feb-08 06:32N 59°54' E 030°13'0 0.0
2016-Feb-08 05:32N 59°54' E 030°13'0 0.0
2016-Feb-08 04:32N 59°54' E 030°13'0 0.0
2016-Feb-08 03:32N 59°54' E 030°13'0 0.0
2016-Feb-08 02:32N 59°54' E 030°13'0 0.0
2016-Feb-08 01:32N 59°54' E 030°13'0 0.0
2016-Feb-08 00:32N 59°54' E 030°13'0 0.0
2016-Feb-07 23:32N 59°54' E 030°13'0 0.0
2016-Feb-07 22:32N 59°54' E 030°13'0 0.0
2016-Feb-07 21:32N 59°54' E 030°13'0 0.0
2016-Feb-07 20:32N 59°54' E 030°13'0 0.0
2016-Feb-07 19:32N 59°54' E 030°13'0 0.0
2016-Feb-07 18:32N 59°54' E 030°13'0 0.0
2016-Feb-07 17:32N 59°54' E 030°13'0 0.0
2016-Feb-07 16:32N 59°54' E 030°13'0 0.0
2016-Feb-07 15:32N 59°54' E 030°13'0 0.0
2016-Feb-07 14:32N 59°54' E 030°13'0 0.0
2016-Feb-07 13:32N 59°54' E 030°13'0 0.0
2016-Feb-07 12:32N 59°54' E 030°13'0 0.0
2016-Feb-07 11:32N 59°54' E 030°13'0 0.0
2016-Feb-07 10:32N 59°54' E 030°13'0 0.0
2016-Feb-07 09:32N 59°54' E 030°13'0 0.0
2016-Feb-07 08:32N 59°54' E 030°13'0 0.0
2016-Feb-07 07:32N 59°54' E 030°13'0 0.0
2016-Feb-07 06:32N 59°54' E 030°13'0 0.0
2016-Feb-07 05:32N 59°54' E 030°13'0 0.0
2016-Feb-07 04:32N 59°54' E 030°13'0 0.0
2016-Feb-07 03:32N 59°54' E 030°13'0 0.0
2016-Feb-07 02:32N 59°54' E 030°13'0 0.0
2016-Feb-07 01:32N 59°54' E 030°13'0 0.0
2016-Feb-07 00:32N 59°54' E 030°13'0 0.0
2016-Feb-06 23:32N 59°54' E 030°13'0 0.0
2016-Feb-06 22:32N 59°54' E 030°13'0 0.0
2016-Feb-06 21:32N 59°54' E 030°13'0 0.0
2016-Feb-06 20:32N 59°54' E 030°13'0 0.0
2016-Feb-06 19:32N 59°54' E 030°13'0 0.0
2016-Feb-06 18:32N 59°54' E 030°13'0 0.0
2016-Feb-06 17:32N 59°54' E 030°13'0 0.0
2016-Feb-06 16:32N 59°54' E 030°13'0 0.0
2016-Feb-06 15:32N 59°54' E 030°13'0 0.0
2016-Feb-06 14:32N 59°54' E 030°13'0 0.0
2016-Feb-06 13:32N 59°54' E 030°13'0 0.0
2016-Feb-06 12:32N 59°54' E 030°13'0 0.0
2016-Feb-06 11:32N 59°54' E 030°13'0 0.0
2016-Feb-06 10:32N 59°54' E 030°13'0 0.0
2016-Feb-06 09:32N 59°54' E 030°13'0 0.0
2016-Feb-06 08:32N 59°54' E 030°13'0 0.0
2016-Feb-06 07:33N 59°54' E 030°13'1 0.5
2016-Feb-06 06:33N 59°53' E 030°12'1 1.1
2016-Feb-06 05:33N 59°53' E 030°10'9 9.4
2016-Feb-06 04:33N 59°57' E 029°53'30 3.3
2016-Feb-05 19:33N 60°02' E 028°54'1010.3
2016-Feb-05 18:33N 60°02' E 028°34'1010.3
2016-Feb-05 17:33N 60°07' E 028°16'1110.5
2016-Feb-05 16:33N 60°10' E 027°55'37 8.9
2016-Feb-05 12:22N 60°05' E 026°41'1210.3
2016-Feb-05 11:15N 60°12' E 026°23'7 9.6
2016-Feb-05 10:33N 60°18' E 026°29'1010.2
2016-Feb-05 09:33N 60°23' E 026°47'5 4.6
2016-Feb-05 08:32N 60°26' E 026°55'0 0.0
2016-Feb-05 07:32N 60°26' E 026°55'0 0.0
2016-Feb-05 06:32N 60°26' E 026°55'0 0.0
2016-Feb-05 05:32N 60°26' E 026°55'0 0.0
2016-Feb-05 04:32N 60°26' E 026°55'0 0.0
2016-Feb-05 03:32N 60°26' E 026°55'0 0.0
2016-Feb-05 02:32N 60°26' E 026°55'0 0.0
2016-Feb-05 01:32N 60°26' E 026°55'0 0.0
2016-Feb-05 00:32N 60°26' E 026°55'0 0.0
2016-Feb-04 23:32N 60°26' E 026°55'0 0.0
2016-Feb-04 22:32N 60°26' E 026°55'0 0.0
2016-Feb-04 21:29N 60°26' E 026°55'0 0.0
2016-Feb-04 20:32N 60°26' E 026°55'0 0.0
2016-Feb-04 19:32N 60°26' E 026°55'  

Dump ship's entire track history